Time;durP1;ratioP1;P1;durP2;ratioP2;P2;SDS_P1;SDS_P2;PMS_P1;PMS_P2;Temp;Humidity;BMP_temperature;BMP_pressure;BME280_temperature;BME280_humidity;BME280_pressure;Samples;Min_cycle;Max_cycle;Signal;HPM_P1;HPM_P2
2022/06/09 00:01:23;;;;;;;3.03;2.83;;;21.70;1.00;;;;;;5042863;28;20478;-53
2022/06/09 00:04:02;;;;;;;4.00;3.33;;;21.40;1.00;;;;;;5044720;28;20484;-54
2022/06/09 00:06:33;;;;;;;4.13;3.70;;;21.30;1.00;;;;;;5045263;28;20994;-56
2022/06/09 00:09:01;;;;;;;3.53;3.23;;;21.30;1.00;;;;;;5045255;28;20443;-55
2022/06/09 00:11:27;;;;;;;3.87;3.50;;;21.30;1.00;;;;;;5046534;28;20443;-54
2022/06/09 00:13:53;;;;;;;3.70;3.40;;;21.20;1.00;;;;;;5047282;28;20863;-55
2022/06/09 00:16:19;;;;;;;3.97;3.57;;;21.20;1.00;;;;;;5044416;28;20533;-55
2022/06/09 00:18:44;;;;;;;4.33;3.93;;;21.10;1.00;;;;;;5048619;28;20658;-55
2022/06/09 00:21:11;;;;;;;7.13;4.30;;;21.20;1.00;;;;;;5049374;28;20298;-54
2022/06/09 00:23:37;;;;;;;4.23;3.80;;;21.00;1.00;;;;;;5043364;28;20192;-53
2022/06/09 00:26:06;;;;;;;5.23;4.17;;;21.00;1.00;;;;;;5048023;28;20446;-55
2022/06/09 00:28:31;;;;;;;6.03;4.37;;;21.00;1.00;;;;;;5057783;28;20195;-54
2022/06/09 00:30:57;;;;;;;5.20;4.47;;;20.90;1.00;;;;;;5040580;28;20777;-55
2022/06/09 00:33:22;;;;;;;5.50;3.90;;;20.80;1.00;;;;;;5046784;28;20211;-54
2022/06/09 00:35:49;;;;;;;4.50;3.60;;;20.70;1.00;;;;;;5047917;28;20188;-54
2022/06/09 00:38:15;;;;;;;7.70;3.80;;;20.60;1.00;;;;;;5045359;28;20700;-55
2022/06/09 00:40:41;;;;;;;4.90;4.40;;;20.50;1.00;;;;;;5041047;28;20525;-55
2022/06/09 00:43:08;;;;;;;9.00;4.17;;;21.10;1.00;;;;;;5037929;28;20177;-54
2022/06/09 00:45:42;;;;;;;3.90;3.50;;;20.40;1.00;;;;;;5052273;28;20191;-53
2022/06/09 00:48:17;;;;;;;3.60;3.33;;;20.40;1.00;;;;;;5047366;28;20438;-52
2022/06/09 00:50:43;;;;;;;4.73;2.90;;;20.20;1.00;;;;;;5039740;28;20568;-55
2022/06/09 00:53:21;;;;;;;3.37;2.87;;;20.10;1.00;;;;;;5038445;28;20446;-54
2022/06/09 00:55:48;;;;;;;4.77;2.90;;;20.00;1.00;;;;;;5042921;28;21092;-53
2022/06/09 00:58:19;;;;;;;2.80;2.50;;;20.00;1.00;;;;;;5048630;28;20453;-54
2022/06/09 01:00:50;;;;;;;3.20;2.60;;;19.80;1.00;;;;;;5048802;28;21114;-53
2022/06/09 01:03:19;;;;;;;3.20;2.43;;;19.70;1.00;;;;;;5047803;28;20450;-54
2022/06/09 01:05:47;;;;;;;4.00;2.70;;;19.70;1.00;;;;;;5048994;28;21011;-55
2022/06/09 01:08:14;;;;;;;3.03;1.90;;;19.70;1.00;;;;;;5047351;28;20458;-55
2022/06/09 01:10:40;;;;;;;4.20;2.40;;;19.60;1.00;;;;;;5046279;28;20445;-54
2022/06/09 01:13:06;;;;;;;2.60;2.40;;;19.50;1.00;;;;;;5051708;28;20521;-55
2022/06/09 01:15:45;;;;;;;3.10;2.53;;;19.50;1.00;;;;;;5051854;28;20215;-55
2022/06/09 01:18:37;;;;;;;3.67;2.07;;;19.50;1.00;;;;;;5051756;28;20191;-55
2022/06/09 01:21:24;;;;;;;3.63;2.53;;;19.30;1.00;;;;;;5048616;28;20890;-54
2022/06/09 01:24:01;;;;;;;3.03;2.20;;;19.30;1.00;;;;;;5060022;28;20549;-52
2022/06/09 01:27:08;;;;;;;3.67;2.83;;;19.20;1.00;;;;;;5049304;28;20460;-54
2022/06/09 01:29:42;;;;;;;2.53;2.20;;;19.10;1.00;;;;;;5048312;28;20446;-53
2022/06/09 01:32:16;;;;;;;5.47;2.37;;;19.10;1.00;;;;;;5046025;28;20481;-51
2022/06/09 01:35:11;;;;;;;4.40;2.10;;;19.10;1.00;;;;;;5045720;28;20967;-55
2022/06/09 01:37:43;;;;;;;2.40;2.20;;;19.20;1.00;;;;;;5049469;28;20439;-52
2022/06/09 01:40:12;;;;;;;7.13;2.40;;;19.20;1.00;;;;;;5050394;28;20454;-54
2022/06/09 01:42:44;;;;;;;2.90;1.90;;;19.10;1.00;;;;;;5048108;28;20465;-53
2022/06/09 01:45:21;;;;;;;3.13;2.20;;;19.00;1.00;;;;;;5048775;28;20480;-54
2022/06/09 01:48:10;;;;;;;2.23;2.03;;;19.00;1.00;;;;;;5050698;28;20471;-55
2022/06/09 01:50:36;;;;;;;5.00;2.23;;;;;;;;;;5048653;28;20493;-54
2022/06/09 01:53:08;;;;;;;2.00;1.70;;;18.80;1.00;;;;;;5048006;28;20447;-55
2022/06/09 01:55:37;;;;;;;2.27;2.03;;;18.80;1.00;;;;;;5048003;28;20450;-55
2022/06/09 01:58:05;;;;;;;5.63;2.37;;;18.80;1.00;;;;;;5048511;28;20508;-53
2022/06/09 02:00:31;;;;;;;2.13;1.93;;;18.80;1.00;;;;;;5048962;28;20467;-54
2022/06/09 02:03:02;;;;;;;3.97;2.00;;;18.70;1.00;;;;;;5046882;28;20454;-55
2022/06/09 02:05:31;;;;;;;3.00;1.67;;;18.80;1.00;;;;;;5056048;28;20868;-55
2022/06/09 02:08:02;;;;;;;4.60;2.13;;;18.80;1.00;;;;;;5049346;28;20849;-53
2022/06/09 02:10:27;;;;;;;5.00;1.93;;;18.90;1.00;;;;;;5049091;28;20446;-55
2022/06/09 02:12:54;;;;;;;4.17;1.87;;;19.00;1.00;;;;;;5048364;28;20953;-54
2022/06/09 02:15:28;;;;;;;2.87;1.77;;;18.90;1.00;;;;;;5048573;28;20262;-54
2022/06/09 02:17:54;;;;;;;5.13;1.73;;;18.90;1.00;;;;;;5050199;28;20457;-55
2022/06/09 02:20:22;;;;;;;4.43;1.87;;;19.10;1.00;;;;;;5047547;28;20550;-52
2022/06/09 02:22:47;;;;;;;4.47;2.00;;;19.00;1.00;;;;;;5048776;28;20208;-54
2022/06/09 02:25:14;;;;;;;2.63;1.93;;;19.00;1.00;;;;;;5051392;28;20971;-55
2022/06/09 02:27:40;;;;;;;2.43;2.10;;;19.00;1.00;;;;;;5050124;28;20230;-53
2022/06/09 02:30:07;;;;;;;3.93;2.63;;;18.90;1.00;;;;;;5051980;28;20951;-54
2022/06/09 02:32:34;;;;;;;4.40;2.10;;;18.90;1.00;;;;;;5045949;28;20205;-55
2022/06/09 02:35:00;;;;;;;4.20;2.00;;;19.00;1.00;;;;;;5048616;28;20510;-55
2022/06/09 02:37:26;;;;;;;5.77;2.17;;;19.00;1.00;;;;;;5044732;28;20462;-53
2022/06/09 02:39:51;;;;;;;3.00;1.80;;;19.00;1.00;;;;;;5049268;28;20477;-55
2022/06/09 02:42:17;;;;;;;3.43;1.90;;;19.10;1.00;;;;;;5047686;28;20216;-54
2022/06/09 02:44:42;;;;;;;3.20;1.63;;;19.20;1.00;;;;;;5045431;28;20186;-54
2022/06/09 02:47:08;;;;;;;1.80;1.60;;;19.20;1.00;;;;;;5046618;28;20271;-55
2022/06/09 02:49:34;;;;;;;2.07;1.70;;;19.20;1.00;;;;;;5047445;28;20669;-54
2022/06/09 02:51:59;;;;;;;2.77;1.50;;;19.10;1.00;;;;;;5051621;28;20279;-54
2022/06/09 02:54:25;;;;;;;1.57;1.47;;;19.10;1.00;;;;;;5049702;28;20200;-55
2022/06/09 02:56:50;;;;;;;1.80;1.23;;;19.20;1.00;;;;;;5048800;28;20184;-55
2022/06/09 02:59:16;;;;;;;2.30;1.37;;;19.10;1.00;;;;;;5047001;28;20200;-55
2022/06/09 03:01:42;;;;;;;1.73;1.20;;;19.10;1.00;;;;;;5053395;28;20257;-53
2022/06/09 03:04:07;;;;;;;5.77;1.33;;;19.10;1.00;;;;;;5051449;28;20187;-52
2022/06/09 03:06:34;;;;;;;2.07;1.70;;;19.30;1.00;;;;;;5053742;28;20179;-54
2022/06/09 03:09:00;;;;;;;3.10;2.07;;;19.50;1.00;;;;;;5049979;28;20188;-55
2022/06/09 03:11:25;;;;;;;5.40;1.50;;;19.40;1.00;;;;;;5043927;28;20503;-55
2022/06/09 03:13:51;;;;;;;3.00;2.33;;;19.40;1.00;;;;;;5048482;28;21032;-53
2022/06/09 03:16:17;;;;;;;3.30;1.50;;;19.50;1.00;;;;;;5045251;28;20196;-54
2022/06/09 03:18:44;;;;;;;2.67;1.10;;;19.50;1.00;;;;;;5051347;28;20301;-55
2022/06/09 03:21:13;;;;;;;2.93;1.37;;;19.40;1.00;;;;;;5052080;28;20453;-55
2022/06/09 03:23:39;;;;;;;1.93;1.33;;;19.30;1.00;;;;;;5045533;28;20446;-54
2022/06/09 03:26:07;;;;;;;3.73;1.30;;;19.40;1.00;;;;;;5043926;28;20474;-55
2022/06/09 03:28:33;;;;;;;2.00;1.33;;;19.40;1.00;;;;;;5045018;28;20450;-54
2022/06/09 03:30:59;;;;;;;3.80;1.33;;;19.50;1.00;;;;;;5043144;28;20450;-53
2022/06/09 03:33:25;;;;;;;2.17;1.10;;;19.60;1.00;;;;;;5044312;28;20201;-52
2022/06/09 03:35:51;;;;;;;2.40;1.70;;;19.60;1.00;;;;;;5047479;28;20471;-54
2022/06/09 03:38:17;;;;;;;3.57;1.53;;;19.70;1.00;;;;;;5050622;28;20446;-55
2022/06/09 03:40:43;;;;;;;3.93;1.70;;;19.80;1.00;;;;;;5043193;28;20287;-55
2022/06/09 03:43:08;;;;;;;1.80;1.70;;;19.80;1.00;;;;;;5042403;28;20592;-55
2022/06/09 03:45:34;;;;;;;2.20;1.33;;;19.80;1.00;;;;;;5034394;28;20180;-54
2022/06/09 03:48:01;;;;;;;2.20;1.70;;;19.80;1.00;;;;;;5035033;28;20207;-55
2022/06/09 03:50:29;;;;;;;2.33;1.27;;;19.80;1.00;;;;;;5037508;28;20489;-54
2022/06/09 03:52:55;;;;;;;3.03;1.30;;;19.80;1.00;;;;;;5038656;28;20459;-56
2022/06/09 03:55:21;;;;;;;1.37;1.27;;;19.70;1.00;;;;;;5037552;28;20505;-56
2022/06/09 03:57:47;;;;;;;6.27;1.90;;;19.50;1.00;;;;;;5055713;28;20237;-54
2022/06/09 04:00:17;;;;;;;1.60;1.23;;;19.50;1.00;;;;;;5062526;28;20846;-55
2022/06/09 04:02:43;;;;;;;1.93;1.60;;;19.40;1.00;;;;;;5054354;28;20211;-55
2022/06/09 04:05:09;;;;;;;3.60;1.60;;;19.30;1.00;;;;;;5061171;28;20540;-55
2022/06/09 04:07:35;;;;;;;2.80;1.60;;;19.30;1.00;;;;;;5051759;28;20221;-53
2022/06/09 04:10:00;;;;;;;2.57;1.30;;;19.40;1.00;;;;;;5053982;28;20842;-54
2022/06/09 04:12:26;;;;;;;1.47;1.37;;;19.40;1.00;;;;;;5056394;28;20180;-53
2022/06/09 04:14:52;;;;;;;4.30;1.53;;;19.30;1.00;;;;;;5058264;28;20183;-54
2022/06/09 04:17:17;;;;;;;2.77;1.50;;;19.30;1.00;;;;;;5044551;28;20200;-55
2022/06/09 04:19:43;;;;;;;1.77;1.57;;;19.20;1.00;;;;;;5049627;28;20192;-54
2022/06/09 04:22:10;;;;;;;1.73;1.60;;;19.20;1.00;;;;;;5053396;28;20210;-53
2022/06/09 04:24:35;;;;;;;2.60;1.60;;;19.20;1.00;;;;;;5050798;28;20450;-54
2022/06/09 04:27:02;;;;;;;2.97;1.40;;;19.20;1.00;;;;;;5054574;28;21294;-57
2022/06/09 04:29:28;;;;;;;2.83;1.50;;;19.30;1.00;;;;;;5051763;28;20184;-56
2022/06/09 04:31:53;;;;;;;2.30;2.10;;;19.30;1.00;;;;;;5058330;28;20962;-54
2022/06/09 04:34:19;;;;;;;4.03;1.90;;;19.40;1.00;;;;;;5054944;28;20448;-53
2022/06/09 04:36:45;;;;;;;1.97;1.47;;;19.30;1.00;;;;;;5055307;28;20602;-54
2022/06/09 04:39:11;;;;;;;1.87;1.50;;;19.50;1.00;;;;;;5062665;28;20648;-53
2022/06/09 04:41:38;;;;;;;5.37;1.70;;;19.80;1.00;;;;;;5057095;28;20208;-55
2022/06/09 04:44:04;;;;;;;3.87;1.90;;;19.80;1.00;;;;;;5048556;28;20504;-53
2022/06/09 04:46:30;;;;;;;5.83;2.10;;;19.80;1.00;;;;;;5050353;28;20466;-54
2022/06/09 04:48:55;;;;;;;2.60;2.10;;;19.90;1.00;;;;;;5050729;28;20509;-55
2022/06/09 04:51:23;;;;;;;4.00;1.70;;;19.60;1.00;;;;;;5047116;28;20192;-55
2022/06/09 04:53:49;;;;;;;2.20;1.50;;;19.50;1.00;;;;;;5050744;28;20579;-55
2022/06/09 04:56:15;;;;;;;2.07;1.20;;;19.40;1.00;;;;;;5048786;28;20443;-53
2022/06/09 04:58:42;;;;;;;2.70;1.47;;;19.30;1.00;;;;;;5046183;28;20515;-55
2022/06/09 05:01:19;;;;;;;2.20;1.10;;;19.20;1.00;;;;;;5054877;28;20467;-54
2022/06/09 05:03:47;;;;;;;2.13;1.60;;;19.20;1.00;;;;;;5048887;28;21042;-53
2022/06/09 05:06:13;;;;;;;3.87;2.00;;;19.20;1.00;;;;;;5048852;28;20543;-54
2022/06/09 05:08:40;;;;;;;1.60;1.50;;;19.20;1.00;;;;;;5052251;28;21473;-55
2022/06/09 05:11:06;;;;;;;2.07;1.40;;;19.30;1.00;;;;;;5050497;28;20354;-54
2022/06/09 05:13:31;;;;;;;3.97;1.70;;;19.50;1.00;;;;;;5050258;28;20931;-55
2022/06/09 05:15:57;;;;;;;3.57;1.43;;;19.50;1.00;;;;;;5062167;28;20450;-55
2022/06/09 05:18:26;;;;;;;2.00;1.43;;;19.60;1.00;;;;;;5057595;28;20571;-55
2022/06/09 05:20:53;;;;;;;3.23;1.87;;;19.70;1.00;;;;;;5052587;28;20188;-55
2022/06/09 05:23:19;;;;;;;1.60;1.50;;;19.70;1.00;;;;;;5054009;28;20591;-54
2022/06/09 05:25:52;;;;;;;4.57;1.80;;;19.70;1.00;;;;;;5050731;28;20454;-55
2022/06/09 05:28:19;;;;;;;3.90;1.50;;;19.60;1.00;;;;;;5048673;28;20458;-53
2022/06/09 05:30:45;;;;;;;4.37;1.90;;;19.40;1.00;;;;;;5050999;28;20481;-55
2022/06/09 05:33:12;;;;;;;3.80;1.50;;;19.40;1.00;;;;;;5051347;28;20457;-55
2022/06/09 05:35:38;;;;;;;2.67;1.90;;;;;;;;;;5048571;28;20558;-53
2022/06/09 05:46:16;;;;;;;2.27;1.80;;;19.60;1.00;;;;;;5050000;28;20495;-55
2022/06/09 05:48:43;;;;;;;5.00;2.20;;;19.80;1.00;;;;;;5048017;28;20529;-52
2022/06/09 05:51:10;;;;;;;2.10;1.70;;;19.70;1.00;;;;;;5050667;28;20268;-54
2022/06/09 05:53:36;;;;;;;2.23;1.40;;;19.70;1.00;;;;;;5051272;28;20454;-53
2022/06/09 05:56:05;;;;;;;2.43;1.67;;;20.00;1.00;;;;;;5052244;28;20466;-52
2022/06/09 05:58:30;;;;;;;4.23;1.77;;;19.90;1.00;;;;;;5045066;28;20457;-55
2022/06/09 06:00:56;;;;;;;3.03;1.63;;;20.00;1.00;;;;;;5050684;28;21203;-53
2022/06/09 06:03:22;;;;;;;2.83;1.67;;;20.00;1.00;;;;;;5050326;28;20188;-55
2022/06/09 06:08:31;;;;;;;1.67;1.30;;;20.10;1.00;;;;;;5047956;28;20522;-55
2022/06/09 06:10:57;;;;;;;2.40;1.50;;;20.20;1.00;;;;;;5053932;28;20461;-54
2022/06/09 06:13:24;;;;;;;2.07;1.23;;;20.30;1.00;;;;;;5047416;28;20188;-56
2022/06/09 06:15:50;;;;;;;4.10;1.40;;;20.20;1.00;;;;;;5052054;28;20223;-54
2022/06/09 06:18:15;;;;;;;2.90;1.40;;;20.00;1.00;;;;;;5049745;28;20553;-53
2022/06/09 06:20:41;;;;;;;3.83;1.63;;;19.70;1.00;;;;;;5049542;28;20192;-55
2022/06/09 06:23:06;;;;;;;3.77;1.37;;;19.70;1.00;;;;;;5053530;28;20191;-54
2022/06/09 06:25:32;;;;;;;4.10;1.53;;;19.70;1.00;;;;;;5050413;28;20215;-54
2022/06/09 06:27:58;;;;;;;1.77;1.30;;;19.80;1.00;;;;;;5048935;28;20197;-53
2022/06/09 06:30:24;;;;;;;2.70;1.37;;;20.00;1.00;;;;;;5047109;28;20195;-54
2022/06/09 06:32:50;;;;;;;2.00;1.40;;;20.00;1.00;;;;;;5046318;28;20444;-54
2022/06/09 06:35:16;;;;;;;3.23;1.10;;;19.80;1.00;;;;;;5047203;28;20497;-54
2022/06/09 06:37:41;;;;;;;1.60;1.50;;;19.90;1.00;;;;;;5048380;28;20318;-55
2022/06/09 06:40:10;;;;;;;1.67;1.57;;;19.90;1.00;;;;;;5044912;28;20275;-55
2022/06/09 06:42:36;;;;;;;1.93;1.70;;;19.70;1.00;;;;;;5049198;28;20200;-53
2022/06/09 06:45:02;;;;;;;1.70;1.43;;;19.70;1.00;;;;;;5045608;28;20892;-55
2022/06/09 06:47:28;;;;;;;1.63;1.50;;;19.40;1.00;;;;;;5054248;28;20272;-52
2022/06/09 06:49:55;;;;;;;4.03;2.10;;;19.30;1.00;;;;;;5055138;28;20486;-53
2022/06/09 06:52:21;;;;;;;2.03;1.87;;;19.30;1.00;;;;;;5046853;28;20482;-54
2022/06/09 06:54:47;;;;;;;3.60;1.77;;;19.20;1.00;;;;;;5052143;28;20938;-54
2022/06/09 06:57:12;;;;;;;2.60;1.80;;;19.20;1.00;;;;;;5066216;28;20503;-55
2022/06/09 06:59:38;;;;;;;3.30;2.00;;;19.10;1.00;;;;;;5046188;28;20673;-55
2022/06/09 07:02:04;;;;;;;3.20;1.60;;;19.20;1.00;;;;;;5048873;28;20216;-55
2022/06/09 07:04:29;;;;;;;5.97;2.17;;;19.30;1.00;;;;;;5042805;28;20598;-54
2022/06/09 07:06:56;;;;;;;2.50;1.60;;;19.40;1.00;;;;;;5046350;28;20195;-52
2022/06/09 07:09:22;;;;;;;3.93;1.73;;;19.60;1.00;;;;;;5047089;28;20188;-53
2022/06/09 07:11:48;;;;;;;8.13;2.00;;;19.60;1.00;;;;;;5048496;28;20549;-54
2022/06/09 07:14:14;;;;;;;2.90;1.70;;;19.70;1.00;;;;;;5051988;28;20460;-54
2022/06/09 07:16:40;;;;;;;4.10;2.00;;;19.70;1.00;;;;;;5046035;28;20250;-56
2022/06/09 07:19:05;;;;;;;2.17;1.57;;;19.80;1.00;;;;;;5048097;28;20187;-56
2022/06/09 07:21:32;;;;;;;4.60;1.83;;;20.10;1.00;;;;;;5047861;28;20268;-56
2022/06/09 07:23:58;;;;;;;3.20;1.80;;;20.30;1.00;;;;;;5046063;28;20645;-53
2022/06/09 07:26:24;;;;;;;1.70;1.57;;;20.50;1.00;;;;;;5046244;28;20447;-56
2022/06/09 07:28:50;;;;;;;3.43;1.87;;;20.60;1.00;;;;;;5048584;28;20503;-54
2022/06/09 07:31:16;;;;;;;3.00;2.27;;;20.60;1.00;;;;;;5043360;28;20199;-54
2022/06/09 07:33:41;;;;;;;1.70;1.60;;;20.60;1.00;;;;;;5049902;28;20245;-54
2022/06/09 07:36:14;;;;;;;2.10;1.90;;;20.80;1.00;;;;;;5045583;28;20275;-56
2022/06/09 07:38:40;;;;;;;2.33;1.77;;;20.80;1.00;;;;;;5044557;28;20546;-55
2022/06/09 07:41:06;;;;;;;4.10;2.27;;;20.50;1.00;;;;;;5051535;28;20464;-54
2022/06/09 07:43:32;;;;;;;3.80;2.23;;;20.50;1.00;;;;;;5052350;28;20451;-56
2022/06/09 07:45:58;;;;;;;2.77;1.90;;;20.30;1.00;;;;;;5044801;28;20922;-52
2022/06/09 07:48:24;;;;;;;2.53;1.93;;;20.20;1.00;;;;;;5050549;28;20474;-56
2022/06/09 07:50:51;;;;;;;3.27;2.07;;;20.20;1.00;;;;;;5046733;28;20477;-54
2022/06/09 07:53:18;;;;;;;3.20;1.93;;;20.30;1.00;;;;;;5048399;28;20278;-55
2022/06/09 07:55:45;;;;;;;2.60;1.93;;;20.10;1.00;;;;;;5046052;28;20430;-54
2022/06/09 07:58:12;;;;;;;3.33;1.90;;;19.80;1.00;;;;;;5048088;28;21248;-52
2022/06/09 08:00:39;;;;;;;6.17;3.60;;;19.70;1.00;;;;;;5048348;28;20439;-56
2022/06/09 08:03:06;;;;;;;2.37;1.80;;;19.70;1.00;;;;;;5047457;28;20462;-55
2022/06/09 08:05:33;;;;;;;2.87;2.40;;;19.80;1.00;;;;;;5047519;28;20443;-55
2022/06/09 08:07:58;;;;;;;3.97;1.90;;;19.90;1.00;;;;;;5042861;28;20889;-54
2022/06/09 08:10:26;;;;;;;2.20;2.03;;;20.00;1.00;;;;;;5046262;28;20542;-53
2022/06/09 08:12:56;;;;;;;3.40;2.53;;;20.00;1.00;;;;;;5039780;28;20196;-54
2022/06/09 08:15:24;;;;;;;2.70;2.20;;;19.90;1.00;;;;;;5043631;28;20438;-55
2022/06/09 08:17:51;;;;;;;2.50;2.30;;;19.90;1.00;;;;;;5047924;28;20446;-53
2022/06/09 08:20:17;;;;;;;4.20;2.50;;;19.80;1.00;;;;;;5048320;28;20446;-52
2022/06/09 08:22:43;;;;;;;2.70;2.17;;;19.50;1.00;;;;;;5047725;28;20549;-55
2022/06/09 08:25:16;;;;;;;3.10;2.07;;;19.50;1.00;;;;;;5047276;28;20608;-54
2022/06/09 08:27:41;;;;;;;2.53;1.90;;;19.40;1.00;;;;;;5046992;28;20443;-54
2022/06/09 08:30:09;;;;;;;2.03;1.83;;;19.40;1.00;;;;;;5046237;28;20454;-54
2022/06/09 08:32:36;;;;;;;2.53;2.07;;;19.50;1.00;;;;;;5046642;28;20195;-55
2022/06/09 08:35:02;;;;;;;2.03;1.77;;;19.40;1.00;;;;;;5044294;28;20512;-55
2022/06/09 08:37:28;;;;;;;2.23;1.77;;;19.50;1.00;;;;;;5048443;28;20789;-54
2022/06/09 08:39:54;;;;;;;2.60;1.90;;;19.40;1.00;;;;;;5049937;28;20460;-54
2022/06/09 08:42:31;;;;;;;2.73;2.10;;;19.40;1.00;;;;;;5051636;28;20748;-54
2022/06/09 08:45:05;;;;;;;2.43;2.00;;;19.40;1.00;;;;;;5048069;28;20270;-52
2022/06/09 08:47:40;;;;;;;2.63;2.00;;;19.50;1.00;;;;;;5049703;28;20456;-52
2022/06/09 08:50:19;;;;;;;3.07;2.27;;;19.40;1.00;;;;;;5043035;28;20566;-56
2022/06/09 08:52:45;;;;;;;2.43;2.20;;;19.40;1.00;;;;;;5050693;28;20778;-55
2022/06/09 08:55:53;;;;;;;3.33;2.60;;;19.40;1.00;;;;;;5049002;28;20461;-56
2022/06/09 08:58:28;;;;;;;3.47;2.43;;;19.60;1.00;;;;;;5027348;28;20193;-53
2022/06/09 09:01:12;;;;;;;3.33;2.53;;;19.50;1.00;;;;;;5047031;28;20519;-55
2022/06/09 09:03:48;;;;;;;3.43;3.23;;;19.70;1.00;;;;;;5046393;28;20443;-54
2022/06/09 09:06:25;;;;;;;4.10;3.70;;;19.60;1.00;;;;;;5050316;28;20441;-53
2022/06/09 09:08:55;;;;;;;4.50;4.10;;;19.30;1.00;;;;;;5061092;28;20531;-56
2022/06/09 09:11:42;;;;;;;4.10;3.70;;;19.20;1.00;;;;;;5053793;28;20945;-54
2022/06/09 09:14:14;;;;;;;4.30;3.90;;;19.30;1.00;;;;;;5040934;28;20512;-55
2022/06/09 09:16:53;;;;;;;4.93;3.83;;;19.40;1.00;;;;;;5047442;28;20936;-57
2022/06/09 09:19:52;;;;;;;5.60;5.10;;;19.60;1.00;;;;;;5047975;28;21019;-55
2022/06/09 09:22:30;;;;;;;6.63;4.43;;;19.50;1.00;;;;;;5047533;28;20473;-55
2022/06/09 09:24:59;;;;;;;4.93;4.57;;;19.40;1.00;;;;;;5047922;28;20465;-53
2022/06/09 09:27:52;;;;;;;5.37;4.97;;;19.20;1.00;;;;;;5050109;28;20521;-54
2022/06/09 09:30:27;;;;;;;4.77;4.43;;;19.20;1.00;;;;;;5034782;28;20444;-56
2022/06/09 09:32:55;;;;;;;19.50;6.00;;;19.40;1.00;;;;;;5048850;28;20457;-53
2022/06/09 09:35:30;;;;;;;4.67;4.27;;;19.40;1.00;;;;;;5049569;28;20552;-56
2022/06/09 09:37:59;;;;;;;4.77;4.40;;;19.50;1.00;;;;;;5048086;28;20453;-53
2022/06/09 09:40:35;;;;;;;4.93;4.53;;;19.60;1.00;;;;;;5056056;28;21031;-52
2022/06/09 09:43:07;;;;;;;4.70;4.40;;;19.70;1.00;;;;;;5047438;28;20509;-55
2022/06/09 09:45:38;;;;;;;4.50;4.10;;;19.70;1.00;;;;;;5055596;28;20465;-55
2022/06/09 09:48:25;;;;;;;4.63;4.23;;;19.70;1.00;;;;;;5044054;28;20438;-55
2022/06/09 09:51:19;;;;;;;6.00;3.80;;;19.60;1.00;;;;;;5050162;28;20478;-55
2022/06/09 09:53:56;;;;;;;4.50;4.10;;;19.50;1.00;;;;;;5044331;28;20450;-56
2022/06/09 09:56:30;;;;;;;6.10;4.40;;;19.40;1.00;;;;;;5048942;28;20764;-55
2022/06/09 09:58:59;;;;;;;4.97;4.57;;;19.40;1.00;;;;;;5046955;28;20482;-54
2022/06/09 10:10:07;;;;;;;5.47;4.97;;;19.40;1.00;;;;;;5044458;28;20517;-54
2022/06/09 10:12:34;;;;;;;5.30;4.00;;;19.50;1.00;;;;;;5041512;28;20504;-55
2022/06/09 10:15:09;;;;;;;5.60;5.20;;;19.40;1.00;;;;;;5052820;28;20525;-54
2022/06/09 10:18:03;;;;;;;5.87;5.37;;;19.00;1.00;;;;;;5045803;28;20499;-57
2022/06/09 10:20:29;;;;;;;5.93;5.40;;;18.80;1.00;;;;;;5054585;28;20517;-56
2022/06/09 10:23:06;;;;;;;5.93;5.47;;;18.80;1.00;;;;;;5048977;28;20566;-56
2022/06/09 10:25:40;;;;;;;6.50;6.00;;;18.70;1.00;;;;;;5045281;28;20283;-54
2022/06/09 10:28:17;;;;;;;6.43;5.93;;;18.80;1.00;;;;;;5046155;28;20521;-53
2022/06/09 10:30:48;;;;;;;7.30;6.60;;;18.70;1.00;;;;;;5047191;28;20871;-56
2022/06/09 10:33:22;;;;;;;6.40;5.90;;;18.70;1.00;;;;;;5045320;28;20815;-56
2022/06/09 10:36:12;;;;;;;6.03;5.53;;;18.60;1.00;;;;;;5051148;28;20479;-56
2022/06/09 10:38:47;;;;;;;6.80;6.20;;;18.50;1.00;;;;;;5050157;28;20847;-55
2022/06/09 10:41:35;;;;;;;7.30;6.60;;;18.50;1.00;;;;;;5045983;28;20515;-56
2022/06/09 10:44:22;;;;;;;6.07;5.57;;;18.60;1.00;;;;;;5037227;28;20537;-54
2022/06/09 10:55:40;;;;;;;6.93;6.33;;;18.80;1.00;;;;;;5050368;28;20949;-54
2022/06/09 10:58:29;;;;;;;5.83;5.43;;;19.10;1.00;;;;;;5050583;28;20848;-54
2022/06/09 11:00:54;;;;;;;6.80;6.20;;;19.20;1.00;;;;;;5044275;28;20454;-56
2022/06/09 11:03:51;;;;;;;6.30;5.80;;;19.30;1.00;;;;;;5048481;28;20570;-54
2022/06/09 11:06:38;;;;;;;6.43;5.87;;;19.50;1.00;;;;;;5046982;28;20219;-54
2022/06/09 11:09:10;;;;;;;6.90;6.30;;;19.50;1.00;;;;;;5047471;28;20750;-55
2022/06/09 11:12:04;;;;;;;7.83;7.17;;;19.70;1.00;;;;;;5046532;28;20442;-56
2022/06/09 11:14:35;;;;;;;6.67;6.17;;;19.60;1.00;;;;;;5047460;28;20987;-56
2022/06/09 11:17:31;;;;;;;7.70;7.10;;;19.70;1.00;;;;;;5047718;28;20951;-53
2022/06/09 11:20:02;;;;;;;7.30;6.50;;;20.00;1.00;;;;;;5046905;28;20944;-54
2022/06/09 11:22:28;;;;;;;7.33;6.73;;;20.20;1.00;;;;;;5048453;28;20477;-53
2022/06/09 11:25:23;;;;;;;7.13;6.30;;;20.40;1.00;;;;;;5048671;28;20469;-57
2022/06/09 11:28:05;;;;;;;7.03;6.43;;;20.30;1.00;;;;;;5054772;28;20188;-54
2022/06/09 11:30:49;;;;;;;8.03;7.27;;;20.40;1.00;;;;;;5047404;28;20780;-56
2022/06/09 11:33:52;;;;;;;7.43;6.77;;;20.20;1.00;;;;;;5055505;28;20518;-56
2022/06/09 11:36:34;;;;;;;7.07;6.47;;;20.30;1.00;;;;;;5046942;28;20569;-55
2022/06/09 11:39:21;;;;;;;7.80;7.10;;;20.50;1.00;;;;;;5043926;28;20452;-54
2022/06/09 11:42:06;;;;;;;6.97;6.27;;;20.60;1.00;;;;;;5047822;28;20504;-56
2022/06/09 11:44:39;;;;;;;7.77;7.00;;;20.70;1.00;;;;;;5047717;28;20449;-52
2022/06/09 11:47:16;;;;;;;7.43;6.73;;;20.70;1.00;;;;;;5047369;28;20978;-55
2022/06/09 11:49:45;;;;;;;7.27;6.53;;;20.70;1.00;;;;;;5041843;28;20474;-54
2022/06/09 11:52:16;;;;;;;7.03;6.43;;;20.80;1.00;;;;;;5053131;28;20461;-54
2022/06/09 11:55:02;;;;;;;7.53;6.93;;;20.80;1.00;;;;;;5047283;28;20612;-55
2022/06/09 11:57:34;;;;;;;11.30;7.50;;;20.80;1.00;;;;;;5048610;28;20816;-52
2022/06/09 12:00:26;;;;;;;7.33;6.70;;;20.70;1.00;;;;;;5048165;28;20470;-53
2022/06/09 12:02:57;;;;;;;6.20;5.70;;;20.60;1.00;;;;;;5060901;28;20470;-53
2022/06/09 12:06:05;;;;;;;6.70;6.10;;;20.50;1.00;;;;;;5047680;28;20950;-57
2022/06/09 12:08:51;;;;;;;6.33;5.73;;;20.40;1.00;;;;;;5045953;28;22716;-56
2022/06/09 12:11:22;;;;;;;6.50;6.00;;;20.40;1.00;;;;;;5039526;28;20454;-54
2022/06/09 12:14:15;;;;;;;7.00;6.40;;;20.90;1.00;;;;;;5043448;28;20450;-55
2022/06/09 12:17:05;;;;;;;6.70;6.13;;;21.00;1.00;;;;;;5050172;28;20448;-57
2022/06/09 12:19:49;;;;;;;6.20;5.70;;;21.10;1.00;;;;;;5051795;28;20446;-54
2022/06/09 12:22:45;;;;;;;7.43;6.73;;;21.20;1.00;;;;;;5051470;28;20970;-56
2022/06/09 12:25:17;;;;;;;6.67;5.90;;;21.30;1.00;;;;;;5051175;28;20951;-56
2022/06/09 12:27:49;;;;;;;8.03;5.93;;;21.50;1.00;;;;;;5052087;28;20638;-56
2022/06/09 12:30:15;;;;;;;6.40;5.90;;;21.60;1.00;;;;;;5055316;28;20448;-54
2022/06/09 12:32:46;;;;;;;6.70;5.13;;;21.60;1.00;;;;;;5050957;28;20417;-56
2022/06/09 12:35:29;;;;;;;7.33;6.23;;;21.60;1.00;;;;;;5051801;28;20494;-57
2022/06/09 12:38:03;;;;;;;5.23;4.83;;;21.80;1.00;;;;;;5052274;28;20436;-54
2022/06/09 12:40:39;;;;;;;6.83;5.77;;;21.80;1.00;;;;;;5051986;28;21022;-55
2022/06/09 12:43:18;;;;;;;6.40;5.43;;;22.00;1.00;;;;;;5054023;28;20448;-56
2022/06/09 12:45:59;;;;;;;6.13;5.53;;;22.30;1.00;;;;;;5048815;28;20515;-55
2022/06/09 12:48:29;;;;;;;6.90;5.50;;;22.50;1.00;;;;;;5064961;28;20438;-54
2022/06/09 12:50:55;;;;;;;5.90;5.40;;;22.40;1.00;;;;;;5053226;28;20513;-55
2022/06/09 12:53:33;;;;;;;5.47;4.97;;;22.40;1.00;;;;;;5056418;28;20441;-53
2022/06/09 12:56:22;;;;;;;5.70;5.20;;;22.60;1.00;;;;;;5053574;28;20540;-54
2022/06/09 12:58:50;;;;;;;6.30;5.23;;;22.50;1.00;;;;;;5051078;28;20574;-56
2022/06/09 13:01:25;;;;;;;5.87;5.37;;;22.50;1.00;;;;;;5051686;28;20592;-55
2022/06/09 13:03:57;;;;;;;6.30;5.20;;;22.50;1.00;;;;;;5048904;28;20450;-54
2022/06/09 13:06:31;;;;;;;6.50;5.40;;;22.20;1.00;;;;;;5049215;28;20417;-53
2022/06/09 13:09:00;;;;;;;5.77;5.27;;;22.20;1.00;;;;;;5057301;28;20421;-52
2022/06/09 13:14:22;;;;;;;6.10;5.60;;;22.30;1.00;;;;;;5047943;28;20449;-55
2022/06/09 13:16:50;;;;;;;6.70;5.90;;;22.30;1.00;;;;;;5053181;28;20446;-56
2022/06/09 13:19:20;;;;;;;5.77;5.33;;;22.30;1.00;;;;;;5049602;28;20462;-53
2022/06/09 13:21:47;;;;;;;7.00;6.10;;;22.50;1.00;;;;;;5050957;28;20851;-55
2022/06/09 13:24:31;;;;;;;8.47;5.73;;;22.50;1.00;;;;;;5050718;28;20534;-53
2022/06/09 13:26:57;;;;;;;6.53;5.57;;;22.50;1.00;;;;;;5050301;28;20454;-55
2022/06/09 13:29:27;;;;;;;6.10;5.60;;;22.60;1.00;;;;;;5057111;28;20445;-55
2022/06/09 13:32:22;;;;;;;9.00;5.23;;;22.80;1.00;;;;;;5050805;28;20500;-55
2022/06/09 13:34:50;;;;;;;5.90;5.30;;;22.90;1.00;;;;;;5044526;28;20457;-55
2022/06/09 13:37:34;;;;;;;8.10;5.60;;;22.90;1.00;;;;;;5049590;28;20487;-57
2022/06/09 13:40:11;;;;;;;7.50;5.70;;;23.20;1.00;;;;;;5047227;28;20446;-55
2022/06/09 13:42:59;;;;;;;8.63;6.03;;;22.90;1.00;;;;;;5052081;28;20466;-54
2022/06/09 13:45:28;;;;;;;6.60;5.90;;;23.00;1.00;;;;;;5054273;28;20442;-56
2022/06/09 13:48:23;;;;;;;8.27;6.60;;;22.80;1.00;;;;;;5049917;28;20783;-56
2022/06/09 13:51:08;;;;;;;5.90;5.40;;;22.90;1.00;;;;;;5050050;28;20474;-54